sensor_id;sensor_type;location;lat;lon;timestamp;pressure;altitude;pressure_sealevel;temperature;humidity
64080;BME280;51042;49.696;10.808;2023-04-25T00:01:01;97719.66;;;7.56;100.00
64080;BME280;51042;49.696;10.808;2023-04-25T00:03:28;97723.56;;;7.55;100.00
64080;BME280;51042;49.696;10.808;2023-04-25T00:05:54;97718.88;;;7.55;100.00
64080;BME280;51042;49.696;10.808;2023-04-25T00:08:21;97713.84;;;7.54;100.00
64080;BME280;51042;49.696;10.808;2023-04-25T00:10:47;97703.69;;;7.54;100.00
64080;BME280;51042;49.696;10.808;2023-04-25T00:13:13;97718.88;;;7.55;100.00
64080;BME280;51042;49.696;10.808;2023-04-25T00:15:39;97717.69;;;7.56;100.00
64080;BME280;51042;49.696;10.808;2023-04-25T00:18:06;97712.97;;;7.57;100.00
64080;BME280;51042;49.696;10.808;2023-04-25T00:20:32;97713.31;;;7.59;100.00
64080;BME280;51042;49.696;10.808;2023-04-25T00:22:57;97716.81;;;7.59;100.00
64080;BME280;51042;49.696;10.808;2023-04-25T00:25:22;97711.34;;;7.59;100.00
64080;BME280;51042;49.696;10.808;2023-04-25T00:27:48;97717.25;;;7.58;100.00
64080;BME280;51042;49.696;10.808;2023-04-25T00:30:14;97711.78;;;7.58;100.00
64080;BME280;51042;49.696;10.808;2023-04-25T00:32:39;97713.31;;;7.59;100.00
64080;BME280;51042;49.696;10.808;2023-04-25T00:35:05;97708.63;;;7.59;100.00
64080;BME280;51042;49.696;10.808;2023-04-25T00:37:30;97702.75;;;7.61;100.00
64080;BME280;51042;49.696;10.808;2023-04-25T00:39:57;97703.06;;;7.63;100.00
64080;BME280;51042;49.696;10.808;2023-04-25T00:42:23;97698.81;;;7.62;100.00
64080;BME280;51042;49.696;10.808;2023-04-25T00:44:50;97701.56;;;7.62;100.00
64080;BME280;51042;49.696;10.808;2023-04-25T00:47:17;97695.63;;;7.63;100.00
64080;BME280;51042;49.696;10.808;2023-04-25T00:49:42;97694.13;;;7.62;100.00
64080;BME280;51042;49.696;10.808;2023-04-25T00:52:08;97692.13;;;7.63;100.00
64080;BME280;51042;49.696;10.808;2023-04-25T00:54:33;97696.84;;;7.62;100.00
64080;BME280;51042;49.696;10.808;2023-04-25T00:56:58;97695.63;;;7.63;100.00
64080;BME280;51042;49.696;10.808;2023-04-25T00:59:25;97690.16;;;7.63;100.00
64080;BME280;51042;49.696;10.808;2023-04-25T01:01:52;97691.28;;;7.66;100.00
64080;BME280;51042;49.696;10.808;2023-04-25T01:04:17;97683.88;;;7.66;100.00
64080;BME280;51042;49.696;10.808;2023-04-25T01:06:43;97687.78;;;7.65;100.00
64080;BME280;51042;49.696;10.808;2023-04-25T01:09:08;97681.13;;;7.66;100.00
64080;BME280;51042;49.696;10.808;2023-04-25T01:11:34;97679.59;;;7.65;100.00
64080;BME280;51042;49.696;10.808;2023-04-25T01:14:00;97676.09;;;7.65;100.00
64080;BME280;51042;49.696;10.808;2023-04-25T01:16:26;97674.31;;;7.58;100.00
64080;BME280;51042;49.696;10.808;2023-04-25T01:18:52;97671.59;;;7.58;100.00
64080;BME280;51042;49.696;10.808;2023-04-25T01:21:19;97676.63;;;7.60;100.00
64080;BME280;51042;49.696;10.808;2023-04-25T01:23:44;97681.31;;;7.59;100.00
64080;BME280;51042;49.696;10.808;2023-04-25T01:26:10;97672.03;;;7.57;100.00
64080;BME280;51042;49.696;10.808;2023-04-25T01:28:37;97677.16;;;7.55;100.00
64080;BME280;51042;49.696;10.808;2023-04-25T01:31:06;97680.31;;;7.53;100.00
64080;BME280;51042;49.696;10.808;2023-04-25T01:33:31;97672.56;;;7.52;100.00
64080;BME280;51042;49.696;10.808;2023-04-25T01:35:57;97675.75;;;7.50;100.00
64080;BME280;51042;49.696;10.808;2023-04-25T01:38:22;97671.91;;;7.48;100.00
64080;BME280;51042;49.696;10.808;2023-04-25T01:40:48;97669.28;;;7.44;100.00
64080;BME280;51042;49.696;10.808;2023-04-25T01:43:15;97679.44;;;7.44;100.00
64080;BME280;51042;49.696;10.808;2023-04-25T01:45:41;97672.31;;;7.46;100.00
64080;BME280;51042;49.696;10.808;2023-04-25T01:48:08;97680.44;;;7.50;100.00
64080;BME280;51042;49.696;10.808;2023-04-25T01:50:34;97673.66;;;7.54;100.00
64080;BME280;51042;49.696;10.808;2023-04-25T01:52:59;97679.47;;;7.56;100.00
64080;BME280;51042;49.696;10.808;2023-04-25T01:55:26;97684.59;;;7.54;100.00
64080;BME280;51042;49.696;10.808;2023-04-25T01:57:52;97673.66;;;7.54;100.00
64080;BME280;51042;49.696;10.808;2023-04-25T02:00:17;97675.28;;;7.52;100.00
64080;BME280;51042;49.696;10.808;2023-04-25T02:02:43;97673.66;;;7.54;100.00
64080;BME280;51042;49.696;10.808;2023-04-25T02:05:08;97671.34;;;7.53;100.00
64080;BME280;51042;49.696;10.808;2023-04-25T02:07:34;97673.66;;;7.54;100.00
64080;BME280;51042;49.696;10.808;2023-04-25T02:09:59;97670.94;;;7.54;100.00
64080;BME280;51042;49.696;10.808;2023-04-25T02:12:24;97666.66;;;7.53;100.00
64080;BME280;51042;49.696;10.808;2023-04-25T02:14:51;97677.59;;;7.53;100.00
64080;BME280;51042;49.696;10.808;2023-04-25T02:17:16;97674.97;;;7.50;100.00
64080;BME280;51042;49.696;10.808;2023-04-25T02:19:42;97673.84;;;7.47;100.00
64080;BME280;51042;49.696;10.808;2023-04-25T02:22:08;97667.31;;;7.45;100.00
64080;BME280;51042;49.696;10.808;2023-04-25T02:24:33;97670.53;;;7.39;100.00
64080;BME280;51042;49.696;10.808;2023-04-25T02:26:59;97666.38;;;7.35;100.00
64080;BME280;51042;49.696;10.808;2023-04-25T02:29:25;97667.56;;;7.34;100.00
64080;BME280;51042;49.696;10.808;2023-04-25T02:31:50;97667.50;;;7.37;100.00
64080;BME280;51042;49.696;10.808;2023-04-25T02:34:15;97661.28;;;7.37;100.00
64080;BME280;51042;49.696;10.808;2023-04-25T02:36:41;97660.16;;;7.34;100.00
64080;BME280;51042;49.696;10.808;2023-04-25T02:39:06;97661.88;;;7.28;100.00
64080;BME280;51042;49.696;10.808;2023-04-25T02:41:31;97653.38;;;7.26;100.00
64080;BME280;51042;49.696;10.808;2023-04-25T02:43:57;97653.13;;;7.21;100.00
64080;BME280;51042;49.696;10.808;2023-04-25T02:46:22;97648.88;;;7.20;100.00
64080;BME280;51042;49.696;10.808;2023-04-25T02:48:47;97644.59;;;7.19;100.00
64080;BME280;51042;49.696;10.808;2023-04-25T02:51:13;97653.13;;;7.21;100.00
64080;BME280;51042;49.696;10.808;2023-04-25T02:53:38;97654.22;;;7.23;100.00
64080;BME280;51042;49.696;10.808;2023-04-25T02:56:04;97654.56;;;7.25;100.00
64080;BME280;51042;49.696;10.808;2023-04-25T02:58:30;97643.66;;;7.25;100.00
64080;BME280;51042;49.696;10.808;2023-04-25T03:00:55;97649.88;;;7.26;100.00
64080;BME280;51042;49.696;10.808;2023-04-25T03:03:20;97640.47;;;7.27;100.00
64080;BME280;51042;49.696;10.808;2023-04-25T03:05:51;97637.44;;;7.25;100.00
64080;BME280;51042;49.696;10.808;2023-04-25T03:08:17;97644.50;;;7.22;100.00
64080;BME280;51042;49.696;10.808;2023-04-25T03:10:43;97638.97;;;7.26;100.00
64080;BME280;51042;49.696;10.808;2023-04-25T03:13:09;97638.97;;;7.26;100.00
64080;BME280;51042;49.696;10.808;2023-04-25T03:15:34;97645.19;;;7.26;100.00
64080;BME280;51042;49.696;10.808;2023-04-25T03:18:01;97646.69;;;7.27;100.00
64080;BME280;51042;49.696;10.808;2023-04-25T03:20:26;97642.69;;;7.32;100.00
64080;BME280;51042;49.696;10.808;2023-04-25T03:22:51;97645.31;;;7.35;100.00
64080;BME280;51042;49.696;10.808;2023-04-25T03:25:17;97652.66;;;7.38;100.00
64080;BME280;51042;49.696;10.808;2023-04-25T03:27:42;97646.84;;;7.36;100.00
64080;BME280;51042;49.696;10.808;2023-04-25T03:30:07;97649.25;;;7.34;100.00
64080;BME280;51042;49.696;10.808;2023-04-25T03:32:34;97649.66;;;7.33;100.00
64080;BME280;51042;49.696;10.808;2023-04-25T03:34:59;97640.81;;;7.29;100.00
64080;BME280;51042;49.696;10.808;2023-04-25T03:37:25;97650.66;;;7.26;100.00
64080;BME280;51042;49.696;10.808;2023-04-25T03:39:50;97645.50;;;7.28;100.00
64080;BME280;51042;49.696;10.808;2023-04-25T03:42:15;97653.69;;;7.28;100.00
64080;BME280;51042;49.696;10.808;2023-04-25T03:44:41;97645.94;;;7.27;100.00
64080;BME280;51042;49.696;10.808;2023-04-25T03:47:06;97643.06;;;7.18;100.00
64080;BME280;51042;49.696;10.808;2023-04-25T03:49:32;97649.41;;;7.15;100.00
64080;BME280;51042;49.696;10.808;2023-04-25T03:51:57;97648.28;;;7.12;100.00
64080;BME280;51042;49.696;10.808;2023-04-25T03:54:23;97651.88;;;7.09;100.00
64080;BME280;51042;49.696;10.808;2023-04-25T03:56:48;97650.34;;;7.08;100.00
64080;BME280;51042;49.696;10.808;2023-04-25T03:59:13;97657.53;;;7.02;100.00
64080;BME280;51042;49.696;10.808;2023-04-25T04:01:39;97654.44;;;7.00;100.00
64080;BME280;51042;49.696;10.808;2023-04-25T04:04:04;97659.50;;;7.02;100.00
64080;BME280;51042;49.696;10.808;2023-04-25T04:06:30;97661.44;;;7.01;100.00
64080;BME280;51042;49.696;10.808;2023-04-25T04:08:55;97657.84;;;7.04;100.00
64080;BME280;51042;49.696;10.808;2023-04-25T04:11:21;97655.66;;;6.99;100.00
64080;BME280;51042;49.696;10.808;2023-04-25T04:13:46;97662.97;;;7.02;100.00
64080;BME280;51042;49.696;10.808;2023-04-25T04:16:12;97665.72;;;7.02;100.00
64080;BME280;51042;49.696;10.808;2023-04-25T04:18:37;97666.91;;;7.01;100.00
64080;BME280;51042;49.696;10.808;2023-04-25T04:21:02;97664.94;;;7.02;100.00
64080;BME280;51042;49.696;10.808;2023-04-25T04:23:28;97665.72;;;7.02;100.00
64080;BME280;51042;49.696;10.808;2023-04-25T04:25:55;97675.41;;;7.03;100.00
64080;BME280;51042;49.696;10.808;2023-04-25T04:28:21;97670.72;;;7.04;100.00
64080;BME280;51042;49.696;10.808;2023-04-25T04:30:46;97666.38;;;7.06;100.00
64080;BME280;51042;49.696;10.808;2023-04-25T04:33:12;97669.44;;;7.08;100.00
64080;BME280;51042;49.696;10.808;2023-04-25T04:35:37;97680.78;;;7.07;100.00
64080;BME280;51042;49.696;10.808;2023-04-25T04:38:03;97676.94;;;7.04;100.00
64080;BME280;51042;49.696;10.808;2023-04-25T04:40:28;97674.56;;;7.06;100.00
64080;BME280;51042;49.696;10.808;2023-04-25T04:42:55;97673.28;;;7.11;100.00
64080;BME280;51042;49.696;10.808;2023-04-25T04:45:22;97675.34;;;7.07;100.00
64080;BME280;51042;49.696;10.808;2023-04-25T04:47:47;97676.94;;;7.04;100.00
64080;BME280;51042;49.696;10.808;2023-04-25T04:50:13;97683.94;;;7.05;100.00
64080;BME280;51042;49.696;10.808;2023-04-25T04:52:39;97688.53;;;7.08;100.00
64080;BME280;51042;49.696;10.808;2023-04-25T04:55:05;97690.50;;;7.08;100.00
64080;BME280;51042;49.696;10.808;2023-04-25T04:57:31;97687.69;;;7.11;100.00
64080;BME280;51042;49.696;10.808;2023-04-25T04:59:58;97693.38;;;7.17;100.00
64080;BME280;51042;49.696;10.808;2023-04-25T05:02:23;97690.56;;;7.20;100.00
64080;BME280;51042;49.696;10.808;2023-04-25T05:04:48;97689.81;;;7.20;100.00
64080;BME280;51042;49.696;10.808;2023-04-25T05:07:15;97693.63;;;7.22;100.00
64080;BME280;51042;49.696;10.808;2023-04-25T05:09:40;97690.38;;;7.27;100.00
64080;BME280;51042;49.696;10.808;2023-04-25T05:12:06;97694.56;;;7.32;100.00
64080;BME280;51042;49.696;10.808;2023-04-25T05:14:31;97707.31;;;7.35;100.00
64080;BME280;51042;49.696;10.808;2023-04-25T05:16:56;97703.31;;;7.39;100.00
64080;BME280;51042;49.696;10.808;2023-04-25T05:19:23;97700.91;;;7.42;100.00
64080;BME280;51042;49.696;10.808;2023-04-25T05:21:48;97699.72;;;7.43;100.00
64080;BME280;51042;49.696;10.808;2023-04-25T05:24:14;97699.06;;;7.38;100.00
64080;BME280;51042;49.696;10.808;2023-04-25T05:26:39;97706.91;;;7.36;100.00
64080;BME280;51042;49.696;10.808;2023-04-25T05:29:04;97701.44;;;7.36;100.00
64080;BME280;51042;49.696;10.808;2023-04-25T05:31:30;97696.41;;;7.35;100.00
64080;BME280;51042;49.696;10.808;2023-04-25T05:33:56;97702.53;;;7.39;100.00
64080;BME280;51042;49.696;10.808;2023-04-25T05:36:22;97707.16;;;7.42;100.00
64080;BME280;51042;49.696;10.808;2023-04-25T05:38:47;97706.72;;;7.44;100.00
64080;BME280;51042;49.696;10.808;2023-04-25T05:41:12;97707.03;;;7.46;100.00
64080;BME280;51042;49.696;10.808;2023-04-25T05:43:38;97704.00;;;7.44;100.00
64080;BME280;51042;49.696;10.808;2023-04-25T05:46:03;97716.34;;;7.48;100.00
64080;BME280;51042;49.696;10.808;2023-04-25T05:48:28;97719.84;;;7.49;100.00
64080;BME280;51042;49.696;10.808;2023-04-25T05:50:53;97711.66;;;7.49;100.00
64080;BME280;51042;49.696;10.808;2023-04-25T05:53:19;97715.34;;;7.42;100.00
64080;BME280;51042;49.696;10.808;2023-04-25T05:55:46;97716.00;;;7.46;100.00
64080;BME280;51042;49.696;10.808;2023-04-25T05:58:11;97711.47;;;7.56;100.00
64080;BME280;51042;49.696;10.808;2023-04-25T06:00:36;97716.81;;;7.59;100.00
64080;BME280;51042;49.696;10.808;2023-04-25T06:03:02;97732.13;;;7.69;100.00
64080;BME280;51042;49.696;10.808;2023-04-25T06:05:27;97729.97;;;7.77;100.00
64080;BME280;51042;49.696;10.808;2023-04-25T06:07:53;97732.38;;;7.75;100.00
64080;BME280;51042;49.696;10.808;2023-04-25T06:10:18;97728.44;;;7.76;100.00
64080;BME280;51042;49.696;10.808;2023-04-25T06:12:44;97724.19;;;7.75;100.00
64080;BME280;51042;49.696;10.808;2023-04-25T06:15:09;97723.63;;;7.67;100.00
64080;BME280;51042;49.696;10.808;2023-04-25T06:17:35;97725.47;;;7.70;100.00
64080;BME280;51042;49.696;10.808;2023-04-25T06:20:01;97730.41;;;7.75;100.00
64080;BME280;51042;49.696;10.808;2023-04-25T06:22:27;97733.59;;;7.87;100.00
64080;BME280;51042;49.696;10.808;2023-04-25T06:24:52;97732.59;;;7.80;100.00
64080;BME280;51042;49.696;10.808;2023-04-25T06:27:17;97734.72;;;7.89;100.00
64080;BME280;51042;49.696;10.808;2023-04-25T06:29:42;97735.19;;;8.00;100.00
64080;BME280;51042;49.696;10.808;2023-04-25T06:32:08;97735.41;;;8.06;100.00
64080;BME280;51042;49.696;10.808;2023-04-25T06:34:33;97741.88;;;8.12;100.00
64080;BME280;51042;49.696;10.808;2023-04-25T06:36:58;97731.81;;;8.09;100.00
64080;BME280;51042;49.696;10.808;2023-04-25T06:39:24;97733.88;;;8.05;100.00
64080;BME280;51042;49.696;10.808;2023-04-25T06:41:50;97728.28;;;7.96;100.00
64080;BME280;51042;49.696;10.808;2023-04-25T06:44:15;97736.50;;;7.96;100.00
64080;BME280;51042;49.696;10.808;2023-04-25T06:46:41;97738.44;;;7.95;100.00
64080;BME280;51042;49.696;10.808;2023-04-25T06:49:06;97741.19;;;7.95;100.00
64080;BME280;51042;49.696;10.808;2023-04-25T06:51:32;97742.06;;;7.92;100.00
64080;BME280;51042;49.696;10.808;2023-04-25T06:53:57;97747.41;;;7.96;100.00
64080;BME280;51042;49.696;10.808;2023-04-25T06:56:22;97749.19;;;8.02;100.00
64080;BME280;51042;49.696;10.808;2023-04-25T06:58:48;97754.97;;;8.04;100.00
64080;BME280;51042;49.696;10.808;2023-04-25T07:01:14;97749.75;;;8.10;100.00
64080;BME280;51042;49.696;10.808;2023-04-25T07:03:39;97746.47;;;8.15;100.00
64080;BME280;51042;49.696;10.808;2023-04-25T07:06:05;97754.34;;;8.13;100.00
64080;BME280;51042;49.696;10.808;2023-04-25T07:08:30;97750.53;;;8.23;100.00
64080;BME280;51042;49.696;10.808;2023-04-25T07:10:55;97756.06;;;8.48;100.00
64080;BME280;51042;49.696;10.808;2023-04-25T07:13:21;97758.16;;;8.57;100.00
64080;BME280;51042;49.696;10.808;2023-04-25T07:15:46;97759.25;;;8.72;100.00
64080;BME280;51042;49.696;10.808;2023-04-25T07:18:13;97749.81;;;8.86;100.00
64080;BME280;51042;49.696;10.808;2023-04-25T07:20:38;97757.59;;;8.75;95.91
64080;BME280;51042;49.696;10.808;2023-04-25T07:23:03;97760.44;;;8.46;97.68
64080;BME280;51042;49.696;10.808;2023-04-25T07:25:29;97755.50;;;8.66;99.43
64080;BME280;51042;49.696;10.808;2023-04-25T07:27:55;97760.09;;;8.44;98.92
64080;BME280;51042;49.696;10.808;2023-04-25T07:30:20;97755.31;;;8.06;100.00
64080;BME280;51042;49.696;10.808;2023-04-25T07:32:46;97768.56;;;8.20;100.00
64080;BME280;51042;49.696;10.808;2023-04-25T07:35:11;97766.66;;;8.34;100.00
64080;BME280;51042;49.696;10.808;2023-04-25T07:37:36;97775.75;;;8.56;100.00
64080;BME280;51042;49.696;10.808;2023-04-25T07:40:02;97770.28;;;8.43;100.00
64080;BME280;51042;49.696;10.808;2023-04-25T07:42:29;97762.41;;;8.33;100.00
64080;BME280;51042;49.696;10.808;2023-04-25T07:44:54;97766.13;;;8.64;100.00
64080;BME280;51042;49.696;10.808;2023-04-25T07:47:19;97771.00;;;9.32;97.85
64080;BME280;51042;49.696;10.808;2023-04-25T07:49:45;97771.75;;;9.33;87.61
64080;BME280;51042;49.696;10.808;2023-04-25T07:52:10;97762.63;;;9.49;89.67
64080;BME280;51042;49.696;10.808;2023-04-25T07:54:36;97771.78;;;9.20;84.20
64080;BME280;51042;49.696;10.808;2023-04-25T07:57:01;97763.13;;;9.22;85.09
64080;BME280;51042;49.696;10.808;2023-04-25T07:59:27;97774.69;;;9.38;85.64
64080;BME280;51042;49.696;10.808;2023-04-25T08:01:52;97773.16;;;9.37;85.01
64080;BME280;51042;49.696;10.808;2023-04-25T08:04:18;97777.13;;;10.14;83.98
64080;BME280;51042;49.696;10.808;2023-04-25T08:06:43;97771.75;;;10.23;77.61
64080;BME280;51042;49.696;10.808;2023-04-25T08:09:09;97766.59;;;10.56;83.50
64080;BME280;51042;49.696;10.808;2023-04-25T08:11:34;97772.72;;;10.60;82.99
64080;BME280;51042;49.696;10.808;2023-04-25T08:14:00;97778.16;;;10.08;78.50
64080;BME280;51042;49.696;10.808;2023-04-25T08:16:26;97783.63;;;9.86;80.38
64080;BME280;51042;49.696;10.808;2023-04-25T08:18:52;97785.19;;;9.53;73.26
64080;BME280;51042;49.696;10.808;2023-04-25T08:21:17;97771.06;;;9.76;74.47
64080;BME280;51042;49.696;10.808;2023-04-25T08:23:42;97790.56;;;10.34;85.49
64080;BME280;51042;49.696;10.808;2023-04-25T08:26:07;97786.31;;;10.73;84.70
64080;BME280;51042;49.696;10.808;2023-04-25T08:28:33;97785.41;;;11.16;82.22
64080;BME280;51042;49.696;10.808;2023-04-25T08:30:58;97791.22;;;11.18;83.67
64080;BME280;51042;49.696;10.808;2023-04-25T08:33:24;97783.47;;;11.35;77.08
64080;BME280;51042;49.696;10.808;2023-04-25T08:35:50;97787.31;;;11.37;80.41
64080;BME280;51042;49.696;10.808;2023-04-25T08:38:15;97786.56;;;11.64;76.31
64080;BME280;51042;49.696;10.808;2023-04-25T08:40:41;97785.81;;;11.64;75.40
64080;BME280;51042;49.696;10.808;2023-04-25T08:43:08;97791.75;;;11.53;74.43
64080;BME280;51042;49.696;10.808;2023-04-25T08:45:40;97792.03;;;10.88;79.32
64080;BME280;51042;49.696;10.808;2023-04-25T08:48:10;97803.16;;;11.24;79.62
64080;BME280;51042;49.696;10.808;2023-04-25T08:50:38;97792.22;;;11.61;57.38
64080;BME280;51042;49.696;10.808;2023-04-25T08:53:09;97789.34;;;12.10;57.85
64080;BME280;51042;49.696;10.808;2023-04-25T08:55:41;97805.56;;;11.90;55.73
64080;BME280;51042;49.696;10.808;2023-04-25T08:58:07;97799.25;;;12.35;56.70
64080;BME280;51042;49.696;10.808;2023-04-25T09:00:35;97801.91;;;12.80;55.41
64080;BME280;51042;49.696;10.808;2023-04-25T09:03:00;97803.63;;;12.68;54.97
64080;BME280;51042;49.696;10.808;2023-04-25T09:05:26;97803.56;;;12.08;55.89
64080;BME280;51042;49.696;10.808;2023-04-25T09:07:53;97807.53;;;12.16;55.21
64080;BME280;51042;49.696;10.808;2023-04-25T09:10:18;97811.03;;;11.80;55.65
64080;BME280;51042;49.696;10.808;2023-04-25T09:12:44;97816.19;;;11.69;58.04
64080;BME280;51042;49.696;10.808;2023-04-25T09:15:10;97817.56;;;11.65;57.40
64080;BME280;51042;49.696;10.808;2023-04-25T09:17:37;97819.03;;;11.38;58.27
64080;BME280;51042;49.696;10.808;2023-04-25T09:20:12;97815.66;;;12.02;59.67
64080;BME280;51042;49.696;10.808;2023-04-25T09:22:39;97821.28;;;12.25;58.40
64080;BME280;51042;49.696;10.808;2023-04-25T09:25:11;97824.84;;;11.40;58.50
64080;BME280;51042;49.696;10.808;2023-04-25T09:27:48;97831.81;;;11.23;59.99
64080;BME280;51042;49.696;10.808;2023-04-25T09:30:16;97828.97;;;11.45;58.15
64080;BME280;51042;49.696;10.808;2023-04-25T09:32:42;97829.84;;;11.82;58.45
64080;BME280;51042;49.696;10.808;2023-04-25T09:35:08;97835.88;;;11.68;58.99
64080;BME280;51042;49.696;10.808;2023-04-25T09:37:34;97840.22;;;11.20;61.41
64080;BME280;51042;49.696;10.808;2023-04-25T09:40:00;97844.28;;;11.64;58.09
64080;BME280;51042;49.696;10.808;2023-04-25T09:42:30;97841.59;;;12.10;56.49
64080;BME280;51042;49.696;10.808;2023-04-25T09:44:57;97846.78;;;12.44;54.71
64080;BME280;51042;49.696;10.808;2023-04-25T09:47:24;97840.91;;;12.69;52.14
64080;BME280;51042;49.696;10.808;2023-04-25T09:49:50;97835.16;;;13.09;52.91
64080;BME280;51042;49.696;10.808;2023-04-25T09:52:21;97837.47;;;12.42;54.46
64080;BME280;51042;49.696;10.808;2023-04-25T09:54:47;97845.09;;;11.92;54.77
64080;BME280;51042;49.696;10.808;2023-04-25T09:57:23;97848.63;;;11.25;55.57
64080;BME280;51042;49.696;10.808;2023-04-25T10:02:17;97848.72;;;12.71;54.02
64080;BME280;51042;49.696;10.808;2023-04-25T10:04:46;97843.25;;;13.13;54.54
64080;BME280;51042;49.696;10.808;2023-04-25T10:07:13;97842.50;;;13.93;50.70
64080;BME280;51042;49.696;10.808;2023-04-25T10:09:39;97845.53;;;13.95;49.39
64080;BME280;51042;49.696;10.808;2023-04-25T10:12:05;97846.03;;;13.46;50.98
64080;BME280;51042;49.696;10.808;2023-04-25T10:14:32;97850.59;;;13.16;51.91
64080;BME280;51042;49.696;10.808;2023-04-25T10:16:58;97842.06;;;12.96;52.83
64080;BME280;51042;49.696;10.808;2023-04-25T10:19:29;97847.69;;;13.11;54.72
64080;BME280;51042;49.696;10.808;2023-04-25T10:21:58;97849.84;;;12.55;57.07
64080;BME280;51042;49.696;10.808;2023-04-25T10:24:30;97843.63;;;12.09;58.98
64080;BME280;51042;49.696;10.808;2023-04-25T10:26:57;97850.31;;;11.90;58.61
64080;BME280;51042;49.696;10.808;2023-04-25T10:29:24;97858.25;;;12.34;57.85
64080;BME280;51042;49.696;10.808;2023-04-25T10:31:50;97855.16;;;12.59;56.64
64080;BME280;51042;49.696;10.808;2023-04-25T10:34:16;97857.03;;;12.35;54.11
64080;BME280;51042;49.696;10.808;2023-04-25T10:36:48;97860.06;;;12.46;54.46
64080;BME280;51042;49.696;10.808;2023-04-25T10:39:23;97863.22;;;12.90;55.01
64080;BME280;51042;49.696;10.808;2023-04-25T10:41:58;97872.03;;;12.15;53.77
64080;BME280;51042;49.696;10.808;2023-04-25T10:44:30;97875.97;;;11.87;56.71
64080;BME280;51042;49.696;10.808;2023-04-25T10:46:56;97877.19;;;11.86;56.87
64080;BME280;51042;49.696;10.808;2023-04-25T10:49:32;97877.78;;;11.81;55.68
64080;BME280;51042;49.696;10.808;2023-04-25T10:52:12;97874.91;;;12.12;56.06
64080;BME280;51042;49.696;10.808;2023-04-25T10:54:55;97868.31;;;12.73;55.31
64080;BME280;51042;49.696;10.808;2023-04-25T10:57:31;97871.44;;;12.99;53.40
64080;BME280;51042;49.696;10.808;2023-04-25T11:00:07;97872.94;;;13.18;52.70
64080;BME280;51042;49.696;10.808;2023-04-25T11:02:45;97877.78;;;13.32;51.25
64080;BME280;51042;49.696;10.808;2023-04-25T11:05:23;97873.38;;;13.26;52.07
64080;BME280;51042;49.696;10.808;2023-04-25T11:08:01;97880.88;;;13.25;51.53
64080;BME280;51042;49.696;10.808;2023-04-25T11:10:28;97879.34;;;13.24;51.79
64080;BME280;51042;49.696;10.808;2023-04-25T11:13:00;97882.41;;;13.26;50.36
64080;BME280;51042;49.696;10.808;2023-04-25T11:15:26;97885.91;;;12.66;51.91
64080;BME280;51042;49.696;10.808;2023-04-25T11:17:51;97878.28;;;12.16;53.73
64080;BME280;51042;49.696;10.808;2023-04-25T11:20:17;97882.41;;;12.11;54.81
64080;BME280;51042;49.696;10.808;2023-04-25T11:22:45;97886.97;;;12.60;53.41
64080;BME280;51042;49.696;10.808;2023-04-25T11:25:12;97888.03;;;12.72;51.69
64080;BME280;51042;49.696;10.808;2023-04-25T11:27:49;97901.03;;;12.80;54.02
64080;BME280;51042;49.696;10.808;2023-04-25T11:30:19;97893.00;;;13.09;52.31
64080;BME280;51042;49.696;10.808;2023-04-25T11:32:45;97896.06;;;13.02;52.49
64080;BME280;51042;49.696;10.808;2023-04-25T11:35:11;97893.88;;;13.25;51.53
64080;BME280;51042;49.696;10.808;2023-04-25T11:37:40;97894.63;;;13.34;50.84
64080;BME280;51042;49.696;10.808;2023-04-25T11:40:07;97902.94;;;13.16;51.62
64080;BME280;51042;49.696;10.808;2023-04-25T11:42:34;97899.63;;;13.45;51.14
64080;BME280;51042;49.696;10.808;2023-04-25T11:45:02;97893.59;;;13.56;51.52
64080;BME280;51042;49.696;10.808;2023-04-25T11:47:29;97893.63;;;13.14;50.06
64080;BME280;51042;49.696;10.808;2023-04-25T11:49:55;97900.13;;;13.34;51.67
64080;BME280;51042;49.696;10.808;2023-04-25T11:52:20;97906.41;;;13.92;49.75
64080;BME280;51042;49.696;10.808;2023-04-25T11:54:46;97900.75;;;13.62;49.85
64080;BME280;51042;49.696;10.808;2023-04-25T11:57:11;97907.06;;;13.54;50.78
64080;BME280;51042;49.696;10.808;2023-04-25T11:59:36;97896.66;;;13.58;49.09
64080;BME280;51042;49.696;10.808;2023-04-25T12:02:02;97919.09;;;12.45;50.94
64080;BME280;51042;49.696;10.808;2023-04-25T12:04:29;97904.44;;;12.20;53.61
64080;BME280;51042;49.696;10.808;2023-04-25T12:06:57;97911.75;;;12.14;54.89
64080;BME280;51042;49.696;10.808;2023-04-25T12:09:32;97908.38;;;12.28;53.51
64080;BME280;51042;49.696;10.808;2023-04-25T12:11:58;97912.38;;;12.37;53.30
64080;BME280;51042;49.696;10.808;2023-04-25T12:14:28;97911.00;;;12.14;54.00
64080;BME280;51042;49.696;10.808;2023-04-25T12:16:56;97915.84;;;12.01;54.73
64080;BME280;51042;49.696;10.808;2023-04-25T12:19:25;97917.72;;;12.31;55.09
64080;BME280;51042;49.696;10.808;2023-04-25T12:21:56;97912.81;;;12.35;54.31
64080;BME280;51042;49.696;10.808;2023-04-25T12:24:22;97922.09;;;11.83;54.13
64080;BME280;51042;49.696;10.808;2023-04-25T12:29:22;97929.78;;;12.34;53.20
64080;BME280;51042;49.696;10.808;2023-04-25T12:31:49;97924.13;;;12.74;54.14
64080;BME280;51042;49.696;10.808;2023-04-25T12:34:16;97929.75;;;12.97;51.99
64080;BME280;51042;49.696;10.808;2023-04-25T12:36:41;97935.00;;;12.68;52.10
64080;BME280;51042;49.696;10.808;2023-04-25T12:39:06;97932.06;;;12.17;54.43
64080;BME280;51042;49.696;10.808;2023-04-25T12:41:32;97951.84;;;11.75;56.00
64080;BME280;51042;49.696;10.808;2023-04-25T12:43:58;97946.13;;;11.61;55.32
64080;BME280;51042;49.696;10.808;2023-04-25T12:46:24;97950.81;;;11.20;56.10
64080;BME280;51042;49.696;10.808;2023-04-25T12:48:49;97949.06;;;11.35;56.02
64080;BME280;51042;49.696;10.808;2023-04-25T12:51:14;97964.53;;;11.20;56.05